^^
Grace C. Lehan Memorial Weather Station Historical Data
Daily Summary for January 31, 2021 Units:  Metric    English   Both
Daily Weekly Monthly Yearly
  High: Low: Average:
Temperature: 29.6 °C 19.3 °C 23.8 °C
Dew Point: 22.4 °C 16.6 °C 18.6 °C
Humidity: 91% 48.6% 74%
Wind Speed: 10.5km/h 0km/h 1.1km/h
Wind Gust: 25.7km/h - -
Wind- - WNW
Pressure: 1008 hPa 1005.6 hPa -
Precipitation: 0 mm    
 
 
Tabular Data for January 31, 2021
Time Temperature Dew Point Pressure Wind Wind Speed Wind Gust Humidity Rainfall Rate (Hourly) solar
00:09 24.4 °C 22.4 °C 1006.7 hPa West 0.2 km/h 3.2 km/h 89% 0 mm 0 W/m2
00:14 24.3 °C 22.3 °C 1006.7 hPa Calm   3.2 km/h 88.7% 0 mm 0 W/m2
00:19 24.2 °C 22 °C 1006.7 hPa Calm   3.2 km/h 87.2% 0 mm 0 W/m2
00:24 24.2 °C 21.9 °C 1006.7 hPa Calm   3.2 km/h 87% 0 mm 0 W/m2
00:28 24.2 °C 21.8 °C 1006.7 hPa Calm   3.2 km/h 86.1% 0 mm 0 W/m2
00:34 24.3 °C 21.7 °C 1007 hPa West 0.6 km/h 6.4 km/h 85.4% 0 mm 0 W/m2
00:39 24.3 °C 21.3 °C 1007 hPa West 0.3 km/h 6.4 km/h 83.5% 0 mm 0 W/m2
00:44 24.3 °C 20.8 °C 1007 hPa WNW 0.6 km/h 6.4 km/h 80.8% 0 mm 0 W/m2
00:49 24.3 °C 20.5 °C 1007 hPa Calm   6.4 km/h 79.2% 0 mm 0 W/m2
00:54 24.4 °C 20.4 °C 1007 hPa Calm   6.4 km/h 78.2% 0 mm 0 W/m2
00:59 24.4 °C 20.3 °C 1007 hPa Calm   6.4 km/h 77.8% 0 mm 0 W/m2
01:04 24.5 °C 20.1 °C 1007 hPa NW 0.6 km/h 8 km/h 76.2% 0 mm 0 W/m2
01:09 24.6 °C 19.8 °C 1006.7 hPa Calm   8 km/h 75% 0 mm 0 W/m2
01:14 24.6 °C 19.8 °C 1006.7 hPa Calm   8 km/h 74.9% 0 mm 0 W/m2
01:19 24.7 °C 19.7 °C 1006.7 hPa Calm   8 km/h 74% 0 mm 0 W/m2
01:24 24.7 °C 19.7 °C 1006.7 hPa Calm   8 km/h 74% 0 mm 0 W/m2
01:29 24.7 °C 19.7 °C 1006.7 hPa Calm   8 km/h 74% 0 mm 0 W/m2
01:34 24.6 °C 19.7 °C 1006.7 hPa Calm   8 km/h 74% 0 mm 0 W/m2
01:39 24.6 °C 19.6 °C 1006.7 hPa Calm     74% 0 mm 0 W/m2
01:44 24.5 °C 19.6 °C 1006.7 hPa Calm     74.2% 0 mm 0 W/m2
01:49 24.4 °C 19.6 °C 1006.7 hPa Calm     74.5% 0 mm 0 W/m2
01:54 24.3 °C 19.6 °C 1006.7 hPa Calm     75% 0 mm 0 W/m2
01:59 24.2 °C 19.5 °C 1007 hPa Calm     75% 0 mm 0 W/m2
02:04 24.1 °C 19.6 °C 1007 hPa Calm     75.8% 0 mm 0 W/m2
02:09 24.1 °C 19.6 °C 1007 hPa Calm     76% 0 mm 0 W/m2
02:14 23.9 °C 19.5 °C 1007 hPa Calm     76.2% 0 mm 0 W/m2
02:19 23.9 °C 19.6 °C 1007 hPa Calm     76.8% 0 mm 0 W/m2
02:24 23.8 °C 19.6 °C 1007 hPa Calm     77% 0 mm 0 W/m2
02:29 23.7 °C 19.6 °C 1007 hPa Calm     77.7% 0 mm 0 W/m2
02:34 23.6 °C 19.6 °C 1007 hPa Calm     77.9% 0 mm 0 W/m2
02:39 23.6 °C 19.5 °C 1007 hPa Calm     78% 0 mm 0 W/m2
02:44 23.4 °C 19.5 °C 1007 hPa Calm     78.4% 0 mm 0 W/m2
02:49 23.4 °C 19.6 °C 1006.7 hPa Calm     79% 0 mm 0 W/m2
02:54 23.3 °C 19.4 °C 1006.7 hPa Calm     79% 0 mm 0 W/m2
02:59 23.2 °C 19.4 °C 1006.7 hPa Calm     79% 0 mm 0 W/m2
03:04 23.2 °C 19.2 °C 1007 hPa Calm     78.3% 0 mm 0 W/m2
03:09 23.1 °C 19.1 °C 1007 hPa Calm     78.2% 0 mm 0 W/m2
03:14 23 °C 18.8 °C 1007 hPa NNW 0.2 km/h 4.8 km/h 77.4% 0 mm 0 W/m2
03:19 22.9 °C 18.3 °C 1007 hPa Calm   4.8 km/h 75.7% 0 mm 0 W/m2
03:24 22.8 °C 18.1 °C 1006.7 hPa Calm   4.8 km/h 75% 0 mm 0 W/m2
03:29 22.7 °C 18.2 °C 1007 hPa Calm   4.8 km/h 75.7% 0 mm 0 W/m2
03:34 22.7 °C 18.3 °C 1007 hPa Calm   4.8 km/h 76% 0 mm 0 W/m2
03:39 22.7 °C 18.2 °C 1007 hPa Calm     76% 0 mm 0 W/m2
03:44 22.6 °C 18.2 °C 1007 hPa Calm     76.3% 0 mm 0 W/m2
03:49 22.6 °C 18.3 °C 1007 hPa Calm     77% 0 mm 0 W/m2
03:54 22.5 °C 18.3 °C 1007 hPa Calm     77% 0 mm 0 W/m2
03:59 22.4 °C 18.2 °C 1007 hPa Calm     77% 0 mm 0 W/m2
04:00 22.4 °C 18.2 °C 1007 hPa Calm     77% 0 mm 0 W/m2
04:09 22.3 °C 18.3 °C 1007 hPa Calm     78% 0 mm 0 W/m2
04:14 22.2 °C 18.3 °C 1007 hPa Calm     78.4% 0 mm 0 W/m2
04:19 22.1 °C 18.3 °C 1007 hPa Calm     79% 0 mm 0 W/m2
04:24 22 °C 18.3 °C 1007 hPa Calm     79.4% 0 mm 0 W/m2
04:29 21.9 °C 18.5 °C 1007 hPa Calm     80.9% 0 mm 0 W/m2
04:34 21.8 °C 18.4 °C 1007 hPa Calm     81% 0 mm 0 W/m2
04:39 21.7 °C 18.4 °C 1007 hPa Calm     81.5% 0 mm 0 W/m2
04:44 21.6 °C 18.4 °C 1007 hPa Calm     82% 0 mm 0 W/m2
04:49 21.4 °C 18.3 °C 1007 hPa Calm     82% 0 mm 0 W/m2
04:54 21.3 °C 18.2 °C 1007 hPa Calm     82.1% 0 mm 0 W/m2
04:59 21.3 °C 18.3 °C 1007 hPa Calm     83% 0 mm 0 W/m2
05:04 21.2 °C 18.2 °C 1006.7 hPa Calm     83.2% 0 mm 0 W/m2
05:09 21.1 °C 18.3 °C 1007 hPa Calm     84% 0 mm 0 W/m2
05:14 20.9 °C 18.2 °C 1007 hPa Calm     84.2% 0 mm 0 W/m2
05:19 20.9 °C 18.1 °C 1007 hPa Calm     84% 0 mm 0 W/m2
05:24 20.8 °C 18.2 °C 1007 hPa Calm     85% 0 mm 0 W/m2
05:29 20.7 °C 18.1 °C 1007 hPa Calm     85% 0 mm 0 W/m2
05:34 20.5 °C 17.9 °C 1007 hPa Calm     85% 0 mm 0 W/m2
05:39 20.4 °C 17.8 °C 1006.7 hPa Calm     85% 0 mm 0 W/m2
05:44 20.3 °C 17.7 °C 1006.7 hPa Calm     85% 0 mm 0 W/m2
05:49 20.3 °C 17.8 °C 1006.7 hPa Calm     85.7% 0 mm 0 W/m2
05:54 20.2 °C 17.8 °C 1006.7 hPa Calm     86.2% 0 mm 0 W/m2
05:59 20.2 °C 17.9 °C 1006.7 hPa Calm     87% 0 mm 0 W/m2
06:04 20.1 °C 17.8 °C 1006.7 hPa Calm     87% 0 mm 0 W/m2
06:09 20 °C 17.9 °C 1007 hPa Calm     87.9% 0 mm 0 W/m2
06:14 19.9 °C 17.9 °C 1007 hPa Calm     88% 0 mm 0 W/m2
06:19 19.8 °C 17.8 °C 1007 hPa Calm     88% 0 mm 0 W/m2
06:24 19.7 °C 17.7 °C 1007 hPa Calm     88% 0 mm 0 W/m2
06:28 19.6 °C 17.6 °C 1007 hPa Calm     88% 0 mm 5 W/m2
06:34 19.5 °C 17.5 °C 1007 hPa Calm     88% 0 mm 12 W/m2
06:39 19.4 °C 17.6 °C 1007 hPa Calm     88.9% 0 mm 16 W/m2
06:44 19.4 °C 17.6 °C 1007 hPa Calm     89% 0 mm 23 W/m2
06:49 19.4 °C 17.6 °C 1007.3 hPa Calm     89.4% 0 mm 32 W/m2
06:54 19.3 °C 17.7 °C 1007.3 hPa Calm     90% 0 mm 44 W/m2
06:59 19.3 °C 17.7 °C 1007.3 hPa Calm     90% 0 mm 65 W/m2
07:04 19.4 °C 17.8 °C 1007.3 hPa Calm     90.6% 0 mm 63 W/m2
07:09 19.5 °C 18 °C 1007.3 hPa Calm     91% 0 mm 67 W/m2
07:14 19.6 °C 18 °C 1007.3 hPa Calm     90.6% 0 mm 65 W/m2
07:19 19.7 °C 18.1 °C 1007.3 hPa Calm     90.2% 0 mm 65 W/m2
07:24 19.8 °C 18.2 °C 1007.7 hPa Calm     90% 0 mm 53 W/m2
07:29 19.9 °C 18.3 °C 1007.7 hPa Calm     90% 0 mm 47 W/m2
07:34 20.1 °C 18.4 °C 1007.7 hPa Calm     90% 0 mm 56 W/m2
07:39 20.3 °C 18.6 °C 1007.7 hPa Calm     90% 0 mm 62 W/m2
07:44 20.4 °C 18.6 °C 1007.7 hPa Calm     89.4% 0 mm 63 W/m2
07:49 20.6 °C 18.8 °C 1007.7 hPa Calm     89.5% 0 mm 63 W/m2
07:54 20.7 °C 18.8 °C 1007.7 hPa Calm     89% 0 mm 79 W/m2
07:59 20.7 °C 18.7 °C 1008 hPa Calm     88.3% 0 mm 79 W/m2
08:00 20.8 °C 18.7 °C 1007.7 hPa Calm     88% 0 mm 76 W/m2
08:09 21 °C 18.9 °C 1008 hPa Calm     88% 0 mm 72 W/m2
08:14 21.1 °C 19.1 °C 1008 hPa Calm     88% 0 mm 90 W/m2
08:19 21.3 °C 19.3 °C 1008 hPa Calm     88.4% 0 mm 93 W/m2
08:24 21.4 °C 19.4 °C 1008 hPa Calm     88.4% 0 mm 114 W/m2
08:29 21.6 °C 19.4 °C 1008 hPa Calm     87.6% 0 mm 139 W/m2
08:34 21.6 °C 19.1 °C 1008 hPa Calm     85.8% 0 mm 172 W/m2
08:39 21.8 °C 19.1 °C 1008 hPa Calm     84.8% 0 mm 200 W/m2
08:44 21.9 °C 19 °C 1008 hPa Calm     83.4% 0 mm 251 W/m2
08:49 22.2 °C 18.9 °C 1008 hPa Calm     81.7% 0 mm 148 W/m2
08:54 22.4 °C 19.1 °C 1008 hPa Calm     81.3% 0 mm 144 W/m2
08:59 22.6 °C 19 °C 1008 hPa Calm     80.4% 0 mm 151 W/m2
09:04 22.7 °C 18.8 °C 1008 hPa Calm     78.8% 0 mm 176 W/m2
09:09 22.8 °C 18.7 °C 1008 hPa Calm     77.5% 0 mm 186 W/m2
09:13 23 °C 18.8 °C 1008 hPa Calm     77.5% 0 mm 239 W/m2
10:00 23.9 °C 18.8 °C 1007.7 hPa Calm   4.8 km/h 73% 0 mm 198 W/m2
10:30 24.4 °C 19.5 °C 1007.7 hPa Calm   6.4 km/h 74% 0 mm 216 W/m2
11:00 26.3 °C 19.9 °C 1007.3 hPa Calm   4.8 km/h 68% 0 mm 468 W/m2
11:30 28.3 °C 19.8 °C 1007 hPa WNW 1.6 km/h 14.5 km/h 60% 0 mm 676 W/m2
12:04 28.3 °C 19.5 °C 1007 hPa WNW 1.3 km/h 9.7 km/h 58.9% 0 mm 248 W/m2
12:09 28.3 °C 19.6 °C 1007 hPa WNW 4.2 km/h 17.7 km/h 59.2% 0 mm 190 W/m2
12:14 28.4 °C 19.2 °C 1007 hPa NW 3.2 km/h 17.7 km/h 57.4% 0 mm 209 W/m2
12:19 28.3 °C 19.1 °C 1007 hPa NW 2.6 km/h 17.7 km/h 57.3% 0 mm 257 W/m2
12:24 28.3 °C 19.6 °C 1007 hPa WNW 2.1 km/h 17.7 km/h 59.3% 0 mm 253 W/m2
12:29 28.3 °C 19.6 °C 1007 hPa West 3.7 km/h 17.7 km/h 59.3% 0 mm 285 W/m2
12:34 28.2 °C 19.2 °C 1006.7 hPa NW 3.2 km/h 17.7 km/h 58.2% 0 mm 304 W/m2
12:39 28.1 °C 19.2 °C 1006.7 hPa NW 2.7 km/h 11.3 km/h 58.2% 0 mm 817 W/m2
12:44 28.1 °C 18.6 °C 1006.7 hPa North 1.9 km/h 11.3 km/h 56.4% 0 mm 817 W/m2
12:49 28.3 °C 18.8 °C 1006.7 hPa NW 4.2 km/h 11.3 km/h 56.5% 0 mm 418 W/m2
12:54 28.4 °C 18.6 °C 1006.7 hPa West 2.1 km/h 11.3 km/h 55.1% 0 mm 612 W/m2
12:59 28.7 °C 18.4 °C 1006.7 hPa WNW 7.4 km/h 16.1 km/h 53.8% 0 mm 793 W/m2
13:04 28.8 °C 18.5 °C 1006.7 hPa West 3.2 km/h 16.1 km/h 53.7% 0 mm 729 W/m2
13:09 29.1 °C 18.7 °C 1006.7 hPa WNW 1.1 km/h 6.4 km/h 53.6% 0 mm 687 W/m2
13:14 29.2 °C 19 °C 1006.7 hPa WNW 1.9 km/h 9.7 km/h 54.1% 0 mm 773 W/m2
13:19 29.4 °C 18.8 °C 1006.7 hPa WNW 5.3 km/h 17.7 km/h 53% 0 mm 680 W/m2
13:24 29.4 °C 18.7 °C 1006.3 hPa NW 5.8 km/h 17.7 km/h 52.4% 0 mm 853 W/m2
13:29 29.4 °C 18.3 °C 1006.3 hPa West 5.1 km/h 17.7 km/h 51.4% 0 mm 817 W/m2
13:34 29.4 °C 18.8 °C 1006.7 hPa West 6 km/h 20.9 km/h 52.8% 0 mm 826 W/m2
13:39 29.5 °C 18.8 °C 1006.7 hPa WNW 5 km/h 20.9 km/h 52.7% 0 mm 998 W/m2
13:44 29.6 °C 18.6 °C 1006.3 hPa WNW 8.7 km/h 20.9 km/h 51.7% 0 mm 998 W/m2
13:49 29.5 °C 18.2 °C 1006.7 hPa NW 10.5 km/h 24.1 km/h 50.7% 0 mm 838 W/m2
13:54 29.3 °C 17.7 °C 1006.7 hPa WNW 9.8 km/h 24.1 km/h 49.6% 0 mm 737 W/m2
13:59 29.2 °C 17.4 °C 1006.7 hPa NW 7.4 km/h 24.1 km/h 49.2% 0 mm 577 W/m2
14:04 29 °C 17.3 °C 1006.7 hPa WNW 8.9 km/h 24.1 km/h 49.2% 0 mm 613 W/m2
14:09 28.8 °C 17.2 °C 1006.7 hPa WNW 6 km/h 20.9 km/h 49.5% 0 mm 504 W/m2
14:14 28.7 °C 16.9 °C 1006.7 hPa NW 6.4 km/h 20.9 km/h 49% 0 mm 501 W/m2
14:19 28.6 °C 17.2 °C 1006.7 hPa NW 4.8 km/h 20.9 km/h 50% 0 mm 410 W/m2
14:24 28.4 °C 16.6 °C 1006.7 hPa WNW 8.9 km/h 20.9 km/h 48.6% 0 mm 332 W/m2
14:29 28.2 °C 16.9 °C 1006.7 hPa WNW 7.9 km/h 24.1 km/h 50.3% 0 mm 265 W/m2
14:34 27.9 °C 17.1 °C 1006.7 hPa WNW 3.7 km/h 24.1 km/h 51.7% 0 mm 243 W/m2
14:39 27.8 °C 17.3 °C 1006.7 hPa WNW 6.3 km/h 25.7 km/h 52.9% 0 mm 192 W/m2
14:44 27.6 °C 16.8 °C 1006.7 hPa WNW 6.1 km/h 25.7 km/h 52% 0 mm 209 W/m2
14:49 27.4 °C 17.1 °C 1006.7 hPa WNW 4.7 km/h 25.7 km/h 53.3% 0 mm 309 W/m2
14:54 27.3 °C 17.4 °C 1006.3 hPa NW 3.5 km/h 25.7 km/h 54.7% 0 mm 476 W/m2
14:59 27.3 °C 17.6 °C 1006.3 hPa NW 4.7 km/h 25.7 km/h 55.3% 0 mm 476 W/m2
15:04 27.4 °C 17.9 °C 1006.3 hPa WNW 4.7 km/h 25.7 km/h 56.1% 0 mm 612 W/m2
15:09 27.6 °C 17.8 °C 1006.3 hPa WNW 6.6 km/h 16.1 km/h 55.3% 0 mm 545 W/m2
15:14 27.6 °C 17.7 °C 1006.3 hPa NW 3.7 km/h 16.1 km/h 54.7% 0 mm 640 W/m2
15:19 27.8 °C 18.3 °C 1006.3 hPa NNW 2.3 km/h 16.1 km/h 56.3% 0 mm 663 W/m2
15:24 27.9 °C 18.2 °C 1006.3 hPa NW 4.2 km/h 19.3 km/h 55.6% 0 mm 564 W/m2
15:29 28.1 °C 18.3 °C 1006 hPa WNW 5 km/h 19.3 km/h 55.3% 0 mm 580 W/m2
15:34 28.2 °C 18.1 °C 1006 hPa WNW 6.4 km/h 19.3 km/h 54.4% 0 mm 580 W/m2
15:39 28.1 °C 18 °C 1006 hPa WNW 3.7 km/h 14.5 km/h 54.2% 0 mm 686 W/m2
15:44 28.2 °C 17.9 °C 1006 hPa WNW 5.1 km/h 14.5 km/h 53.8% 0 mm 708 W/m2
15:49 28.3 °C 18.2 °C 1006 hPa WNW 6.6 km/h 19.3 km/h 54% 0 mm 668 W/m2
15:54 28.4 °C 18.3 °C 1006 hPa West 4.7 km/h 19.3 km/h 54.4% 0 mm 654 W/m2
15:59 28.6 °C 18.3 °C 1006 hPa West 3.4 km/h 19.3 km/h 53.8% 0 mm 649 W/m2
16:09 28.7 °C 18.5 °C 1006 hPa West 1.8 km/h 8 km/h 54.2% 0 mm 56 W/m2
16:14 28.7 °C 18.6 °C 1006 hPa West 2.1 km/h 8 km/h 54.5% 0 mm 60 W/m2
16:19 28.7 °C 18.4 °C 1006 hPa WSW 4.7 km/h 17.7 km/h 53.8% 0 mm 67 W/m2
16:24 28.5 °C 18.3 °C 1006 hPa West 5.8 km/h 17.7 km/h 53.9% 0 mm 65 W/m2
16:29 28.4 °C 17.9 °C 1006 hPa WSW 1.9 km/h 17.7 km/h 52.8% 0 mm 58 W/m2
16:34 28.4 °C 18.2 °C 1006 hPa West 2.3 km/h 17.7 km/h 54% 0 mm 51 W/m2
16:36 28.3 °C 18.1 °C 1006 hPa WNW 1.3 km/h 11.3 km/h 53.7% 0 mm 49 W/m2
17:30 27.8 °C 17.9 °C 1005.6 hPa WNW 1.6 km/h 8 km/h 55% 0 mm 38 W/m2
18:30 26.9 °C 19 °C 1005.6 hPa Calm   6.4 km/h 62% 0 mm 36 W/m2
19:00 26.3 °C 18.7 °C 1006 hPa Calm   3.2 km/h 63% 0 mm 17 W/m2
19:30 25.3 °C 18.8 °C 1006.3 hPa Calm     67% 0 mm 3 W/m2
20:04 23.9 °C 18.8 °C 1006.3 hPa Calm     73% 0 mm 0 W/m2
20:09 23.8 °C 18.8 °C 1006.7 hPa Calm     73.6% 0 mm 0 W/m2
20:14 23.6 °C 18.7 °C 1006.7 hPa Calm   1.6 km/h 74% 0 mm 0 W/m2
20:19 23.4 °C 18.7 °C 1006.7 hPa Calm   1.6 km/h 74.9% 0 mm 0 W/m2
20:24 23.3 °C 18.6 °C 1006.7 hPa Calm   1.6 km/h 75% 0 mm 0 W/m2
20:29 23.1 °C 18.5 °C 1006.7 hPa Calm   1.6 km/h 75.2% 0 mm 0 W/m2
20:34 23 °C 18.6 °C 1006.7 hPa Calm   1.6 km/h 76% 0 mm 0 W/m2
20:39 22.9 °C 18.4 °C 1006.7 hPa Calm     76% 0 mm 0 W/m2
20:44 22.8 °C 18.4 °C 1006.7 hPa Calm     76.3% 0 mm 0 W/m2
20:49 22.7 °C 18.4 °C 1007 hPa Calm     77% 0 mm 0 W/m2
20:54 22.6 °C 18.4 °C 1007 hPa Calm     77% 0 mm 0 W/m2
20:59 22.6 °C 18.3 °C 1007 hPa Calm     77% 0 mm 0 W/m2
21:04 22.4 °C 18.2 °C 1007 hPa Calm     77% 0 mm 0 W/m2
21:09 22.4 °C 18.3 °C 1007 hPa Calm     77.6% 0 mm 0 W/m2
21:14 22.3 °C 18.2 °C 1007 hPa Calm     77.5% 0 mm 0 W/m2
21:19 22.3 °C 18.2 °C 1007 hPa Calm     78% 0 mm 0 W/m2
21:24 22.2 °C 18.2 °C 1007 hPa Calm     78% 0 mm 0 W/m2
21:29 22.2 °C 18.2 °C 1007 hPa Calm     78% 0 mm 0 W/m2
21:34 22.1 °C 18.1 °C 1007 hPa Calm     78% 0 mm 0 W/m2
21:39 22 °C 18 °C 1007 hPa Calm     78% 0 mm 0 W/m2
21:44 21.9 °C 18.2 °C 1007 hPa Calm     79% 0 mm 0 W/m2
21:49 21.9 °C 18.1 °C 1007 hPa Calm     79% 0 mm 0 W/m2
21:54 21.8 °C 18.2 °C 1007 hPa Calm     79.8% 0 mm 0 W/m2
21:59 21.8 °C 18.2 °C 1007 hPa Calm     80% 0 mm 0 W/m2
22:04 21.7 °C 18.1 °C 1007 hPa Calm     80% 0 mm 0 W/m2
22:09 21.6 °C 18.1 °C 1007 hPa Calm     80.4% 0 mm 0 W/m2
22:14 21.6 °C 18.2 °C 1007 hPa Calm     81% 0 mm 0 W/m2
22:19 21.5 °C 18.1 °C 1007 hPa Calm     81% 0 mm 0 W/m2
22:24 21.4 °C 18.1 °C 1007 hPa Calm     81% 0 mm 0 W/m2
22:29 21.4 °C 18 °C 1007.3 hPa WSW 0.2 km/h 4.8 km/h 81% 0 mm 0 W/m2
22:34 21.4 °C 18 °C 1007.3 hPa Calm   4.8 km/h 81% 0 mm 0 W/m2
22:39 21.3 °C 17.9 °C 1007.3 hPa Calm   1.6 km/h 81% 0 mm 0 W/m2
22:44 21.3 °C 17.9 °C 1007.3 hPa Calm   1.6 km/h 81% 0 mm 0 W/m2
22:49 21.3 °C 17.9 °C 1007.3 hPa Calm   1.6 km/h 81% 0 mm 0 W/m2
22:54 21.3 °C 17.9 °C 1007.3 hPa Calm   1.6 km/h 81% 0 mm 0 W/m2
22:59 21.3 °C 17.9 °C 1007.3 hPa Calm   1.6 km/h 81% 0 mm 0 W/m2
23:04 21.2 °C 17.8 °C 1007.7 hPa Calm   1.6 km/h 81% 0 mm 0 W/m2
23:09 21.2 °C 17.8 °C 1007.7 hPa Calm     81% 0 mm 0 W/m2
23:14 21.2 °C 17.9 °C 1007.7 hPa Calm     81.9% 0 mm 0 W/m2
23:19 21.1 °C 17.9 °C 1007.3 hPa Calm     82% 0 mm 0 W/m2
23:24 21.1 °C 17.8 °C 1007.3 hPa Calm     81.5% 0 mm 0 W/m2
23:29 21.1 °C 17.7 °C 1007.3 hPa Calm     81% 0 mm 0 W/m2
23:34 21.2 °C 17.9 °C 1007.3 hPa Calm     81.5% 0 mm 0 W/m2
23:39 21.2 °C 17.8 °C 1007.7 hPa Calm     81.4% 0 mm 0 W/m2
23:44 21.1 °C 17.7 °C 1007.7 hPa Calm     81% 0 mm 0 W/m2
23:49 21.1 °C 17.7 °C 1007.7 hPa Calm     81% 0 mm 0 W/m2
23:54 21.1 °C 17.9 °C 1007.7 hPa Calm     82% 0 mm 0 W/m2
23:59 21.1 °C 17.8 °C 1007.7 hPa Calm     82% 0 mm 0 W/m2
Hartford County Weather
Compliments of Weather Underground - 4 mb